Driscoll, ND

10:55 PM CDT on May 29, 2015 (GMT -0500)
Jamestown Municipal | | Change Station
CLOSE
Current Station
Airport
Location: Jamestown,
Elevation: 1499 ft
Nearby Weather Stations
Active Advisory: Frost Advisory

Elev 1499 ft 46.93 °N, 98.67 °W | Updated 59 minutes ago

Clear
Clear
48 °F
Feels Like 48 °F
N
13
Wind Variable Wind from NNE

Today
High -- | Low -- °F
--% Chance of Precip.
Yesterday
High -- | Low -- °F
Precip. -- in
5:52 AM 9:24 PM
Waxing Gibbous, 88% visible
Pressure 30.29 in
Visibility 10.0 miles
Clouds Clear
Dew Point 35 °F
Humidity 61%
Rainfall 0.00 in
Snow Depth Not available.
UV 0 out of 12
Pollen 9.30 out of 12
Air Quality Not available.
Flu Activity Sporadic
METAR KJMS 300256Z AUTO 03011KT 10SM CLR 09/02 A3026 RMK AO2 SLP255 T00890017 53019

More Conditions Fewer Conditions

Pressure 30.29 in
Visibility 10.0 miles
Clouds Clear
Dew Point 35 °F
Humidity 61%
Rainfall 0.00 in
Snow Depth Not available.
UV 0 out of 12
Pollen 9.30 out of 12
Air Quality Not available.
Flu Activity Sporadic
METAR KJMS 300256Z AUTO 03011KT 10SM CLR 09/02 A3026 RMK AO2 SLP255 T00890017 53019

More Conditions Fewer Conditions

10-Day Weather Forecast

Almanac

Astronomy

May. 29, 2015 Rise Set
Actual Time
Civil Twilight
Nautical Twilight
Astronomical Twilight
Moon
Length of Visible Light
Length of Day
Tomorrow will be .
, % of the Moon is Illuminated

Today's Extremes

State Highs State Lows

Community

WunderPhotos

Upload Photos

1,825,441 photos uploaded!

WunderBlogs® & News

Nearby

Air Quality

  Air Quality AQ Index Pollutant
Not available.

Snow Depth

Station Depth Elevation

Earthquake Activity

City Distance Mag. Time & Date
Minimum magnitude displayed is 2.5.

Coastal Water Temperatures

Place Temperature

Stations

Nearby Weather Stations

Station Location Temp. Windchill Dew Point Humidity Wind Precip. Elev Updated Type
                   
Frost Advisory
Statement as of 9:27 PM CDT on May 29, 2015

... Frost advisory remains in effect from 2 am CDT /1 am MDT/ to
9 am CDT /8 am MDT/ Saturday...

* temperature... lower to middle 30s.

* Impacts... tender outdoor vegetation may be killed if left
unprotected.

Precautionary/preparedness actions...

A frost advisory means that widespread frost is expected.
Sensitive outdoor plants may be killed if left uncovered.


Waa